Flight Track Log - Related Links

Times and Time Zones

All times are in EDT time to prevent confusion due to time zone crossing. See the AAL2461 flight status page for this flight to view local times or setup timezone preferences in your user account.

Time Position Orientation Groundspeed Altitude Reporting Facility
EDT Latitude Longitude Course Direction KTS MPH feet Rate Location/Type
Thu 09:51:47 PM 33.9342 -118.4431 88° East 178 205 1,400  Level Los Angeles Center
Thu 09:52:49 PM 33.8956 -118.5053 233° Southwest 234 269 2,700 1,984 Climbing Los Angeles Center
Thu 09:53:00 PM 33.9581 -117.9763 87° East  Level Estimated
Thu 09:53:51 PM 33.8319 -118.5581 215° Southwest 273 314 5,500  Level Los Angeles Center
Thu 09:54:00 PM 33.9630 -117.8323 88° East  Level Estimated
Thu 09:54:53 PM 33.7553 -118.5367 167° South 270 311 8,300  Level Los Angeles Center
Thu 09:55:00 PM 33.9677 -117.6883 88° East  Level Estimated
Thu 09:55:55 PM 33.6889 -118.4956 153° Southeast 290 334 10,500  Level Los Angeles Center
Thu 09:56:00 PM 33.9722 -117.5443 88° East  Level Estimated
Thu 09:56:57 PM 33.6581 -118.3936 110° East 327 376 12,200  Level Los Angeles Center
Thu 09:57:59 PM 33.6439 -118.2700 98° East 374 430 15,000 3,024 Climbing Los Angeles Center
Thu 09:59:02 PM 33.6447 -118.1239 90° East 377 434 18,500 3,168 Climbing Los Angeles Center
Thu 10:00:04 PM 33.6442 -117.9933 90° East 391 450 21,600 2,661 Climbing Los Angeles Center
Thu 10:01:06 PM 33.6444 -117.8692 90° East 381 438 24,000 1,887 Climbing Los Angeles Center
Thu 10:02:08 PM 33.6439 -117.7353 90° East 401 461 25,500 1,452 Climbing Los Angeles Center
Thu 10:03:10 PM 33.6431 -117.5942 90° East 418 481 27,000 1,645 Climbing Los Angeles Center
Thu 10:04:12 PM 33.6419 -117.4214 90° East 432 497 28,900 1,645 Climbing Los Angeles Center
Thu 10:05:14 PM 33.6403 -117.2736 91° East 439 505 30,400 1,306 Climbing Los Angeles Center
Thu 10:06:16 PM 33.6400 -117.1253 90° East 445 512 31,600 1,161 Climbing Los Angeles Center
Thu 10:07:18 PM 33.6383 -116.9719 91° East 457 526 32,800 1,306 Climbing Los Angeles Center
Thu 10:08:20 PM 33.6536 -116.8050 84° East 467 537 34,300 1,403 Climbing Los Angeles Center
Thu 10:09:22 PM 33.6872 -116.6539 75° East 467 537 35,700 1,161 Climbing Los Angeles Center
Thu 10:10:24 PM 33.7189 -116.5042 76° East 466 536 36,700 629 Climbing Los Angeles Center
Thu 10:11:26 PM 33.7517 -116.3517 75° East 466 536 37,000 145 Climbing Los Angeles Center
Thu 10:12:28 PM 33.7861 -116.1978 75° East 474 545 37,000 -48 Level Los Angeles Center
Thu 10:13:30 PM 33.8253 -116.0128 76° East 477 549 36,900  Descending Los Angeles Center
Thu 10:14:32 PM 33.8572 -115.8633 76° East 469 540 37,000 48 Climbing Los Angeles Center
Thu 10:15:34 PM 33.8878 -115.7119 76° East 467 537 37,000 -48 Level Los Angeles Center
Thu 10:16:36 PM 33.9194 -115.5600 76° East 467 537 36,900 48 Descending Los Angeles Center
Thu 10:17:38 PM 33.9519 -115.4092 75° East 467 537 37,100 484 Climbing Los Angeles Center
Thu 10:18:40 PM 33.9828 -115.2581 76° East 467 537 37,900 726 Climbing Los Angeles Center
Thu 10:19:42 PM 34.0194 -115.0722 77° East 469 540 38,600 532 Climbing Los Angeles Center
Thu 10:20:44 PM 34.0514 -114.9175 76° East 474 545 39,000 145 Climbing Los Angeles Center
Thu 10:21:46 PM 34.0864 -114.7647 74° East 476 548 38,900  Descending Los Angeles Center
Thu 10:22:48 PM 34.1219 -114.6092 75° East 477 549 39,000  Climbing Los Angeles Center
Thu 10:23:50 PM 34.1678 -114.4586 70° East 480 552 38,900 -48 Descending Los Angeles Center
Thu 10:24:52 PM 34.2119 -114.3075 70° East 479 551 38,900 48 Level Los Angeles Center
Thu 10:25:54 PM 34.2625 -114.1247 71° East 479 551 39,000 52 Climbing Los Angeles Center
Thu 10:26:47 PM 34.2917 -114.0069 73° East 485 558 39,000  Level Albuquerque Center
Thu 10:27:48 PM 34.3333 -113.8550 72° East 483 556 39,000  Level Albuquerque Center
Thu 10:28:50 PM 34.3842 -113.6736 71° East 479 551 39,000  Level Albuquerque Center
Thu 10:29:51 PM 34.4236 -113.5253 72° East 476 548 39,000  Level Albuquerque Center
Thu 10:30:52 PM 34.4633 -113.3781 72° East 470 541 39,000  Level Albuquerque Center
Thu 10:31:54 PM 34.5036 -113.2275 72° East 470 541 39,000  Level Albuquerque Center
Thu 10:32:55 PM 34.5428 -113.0797 72° East 470 541 39,000  Level Albuquerque Center
Thu 10:33:57 PM 34.5822 -112.9336 72° East 465 535 39,000  Level Albuquerque Center
Thu 10:34:58 PM 34.6214 -112.7864 72° East 465 535 39,000  Level Albuquerque Center
Thu 10:35:59 PM 34.6614 -112.6369 72° East 465 535 39,000  Level Albuquerque Center
Thu 10:37:01 PM 34.7050 -112.4567 74° East 467 537 39,000  Level Albuquerque Center
Thu 10:38:02 PM 34.7175 -112.3094 84° East 472 543 39,000  Level Albuquerque Center
Thu 10:39:04 PM 34.7319 -112.1497 84° East 472 543 39,000  Level Albuquerque Center
Thu 10:40:05 PM 34.7458 -111.9911 84° East 473 544 39,000  Level Albuquerque Center
Thu 10:41:06 PM 34.7600 -111.8292 84° East 472 543 39,000  Level Albuquerque Center
Thu 10:42:08 PM 34.7736 -111.6736 84° East 472 543 39,000  Level Albuquerque Center
Thu 10:43:09 PM 34.7914 -111.4808 84° East 472 543 39,000  Level Albuquerque Center
Thu 10:44:11 PM 34.8039 -111.3189 85° East 475 547 39,000  Level Albuquerque Center
Thu 10:45:12 PM 34.8169 -111.1564 84° East 479 551 39,000  Level Albuquerque Center
Thu 10:46:13 PM 34.8308 -110.9933 84° East 480 552 39,000  Level Albuquerque Center
Thu 10:47:15 PM 34.8442 -110.8297 84° East 484 557 39,000  Level Albuquerque Center
Thu 10:48:16 PM 34.8603 -110.6439 84° East 486 559 39,000  Level Albuquerque Center
Thu 10:49:17 PM 34.8725 -110.4850 85° East 489 563 39,000  Level Albuquerque Center
Thu 10:50:19 PM 34.8839 -110.3261 85° East 490 564 39,000  Level Albuquerque Center
Thu 10:51:20 PM 34.8981 -110.1397 85° East 491 565 39,000  Level Albuquerque Center
Thu 10:52:21 PM 34.9100 -109.9781 85° East 497 572 39,000  Level Albuquerque Center
Thu 10:53:23 PM 34.9228 -109.7906 85° East 498 573 39,000  Level Albuquerque Center
Thu 10:54:24 PM 34.9331 -109.6306 85° East 498 573 39,000  Level Albuquerque Center
Thu 10:55:25 PM 34.9331 -109.4708 90° East 497 572 39,000  Level Albuquerque Center
Thu 10:56:27 PM 34.9244 -109.2822 93° East 496 571 39,000  Level Albuquerque Center
Thu 10:57:28 PM 34.9181 -109.1231 93° East 496 571 39,000  Level Albuquerque Center
Thu 10:58:29 PM 34.9103 -108.9403 93° East 493 567 39,000  Level Albuquerque Center
Thu 10:59:31 PM 34.9025 -108.7819 93° East 492 566 39,000  Level Albuquerque Center
Thu 11:00:32 PM 34.8950 -108.5944 93° East 492 566 39,000  Level Albuquerque Center
Thu 11:01:33 PM 34.8881 -108.4378 93° East 491 565 39,000  Level Albuquerque Center
Thu 11:02:35 PM 34.8811 -108.2847 93° East 481 554 39,000  Level Albuquerque Center
Thu 11:03:36 PM 34.8728 -108.1286 94° East 472 543 39,000  Level Albuquerque Center
Thu 11:04:37 PM 34.8647 -107.9708 94° East 471 542 39,000  Level Albuquerque Center
Thu 11:05:39 PM 34.8572 -107.8125 93° East 471 542 39,000  Level Albuquerque Center
Thu 11:06:40 PM 34.8483 -107.6247 93° East 469 540 39,000  Level Albuquerque Center
Thu 11:07:42 PM 34.8381 -107.4644 94° East 468 539 39,000  Level Albuquerque Center
Thu 11:08:43 PM 34.8306 -107.3083 93° East 467 537 39,000  Level Albuquerque Center
Thu 11:09:44 PM 34.8208 -107.1414 94° East 465 535 39,000  Level Albuquerque Center
Thu 11:10:46 PM 34.8117 -106.9847 94° East 465 535 39,000  Level Albuquerque Center
Thu 11:11:47 PM 34.8022 -106.8344 94° East 465 535 39,000  Level Albuquerque Center
Thu 11:12:49 PM 34.7925 -106.6769 94° East 466 536 39,000 -49 Level Albuquerque Center
Thu 11:13:50 PM 34.7828 -106.5194 94° East 466 536 38,900  Descending Albuquerque Center
Thu 11:14:52 PM 34.7722 -106.3628 95° East 468 539 39,000 49 Climbing Albuquerque Center
Thu 11:15:53 PM 34.7619 -106.2053 94° East 468 539 39,000  Level Albuquerque Center
Thu 11:16:55 PM 34.7489 -106.0133 95° East 474 545 39,000  Level Albuquerque Center
Thu 11:17:56 PM 34.7372 -105.8475 95° East 471 542 39,000  Level Albuquerque Center
Thu 11:18:58 PM 34.7256 -105.6872 95° East 469 540 39,000 -98 Level Albuquerque Center
Thu 11:19:59 PM 34.7144 -105.5250 95° East 473 544 38,800 -585 Descending Albuquerque Center
Thu 11:21:01 PM 34.7031 -105.3650 95° East 474 545 37,800 -927 Descending Albuquerque Center
Thu 11:22:02 PM 34.6914 -105.2081 95° East 468 539 36,900 -885 Descending Albuquerque Center
Thu 11:23:03 PM 34.6806 -105.0519 95° East 465 535 36,000 -439 Descending Albuquerque Center
Thu 11:24:05 PM 34.6681 -104.8958 96° East 465 535 36,000  Level Albuquerque Center
Thu 11:25:06 PM 34.6567 -104.7411 95° East 463 533 36,000  Level Albuquerque Center
Thu 11:26:08 PM 34.6444 -104.5842 95° East 463 533 36,000  Level Albuquerque Center
Thu 11:27:09 PM 34.6328 -104.4289 95° East 463 533 36,000  Level Albuquerque Center
Thu 11:28:11 PM 34.6183 -104.2469 95° East 463 533 36,000  Level Albuquerque Center
Thu 11:29:12 PM 34.6053 -104.0933 96° East 462 532 36,000  Level Albuquerque Center
Thu 11:30:14 PM 34.5931 -103.9381 95° East 461 531 36,000 -195 Level Albuquerque Center
Thu 11:31:15 PM 34.5792 -103.7831 96° East 462 532 35,600 -488 Descending Albuquerque Center
Thu 11:32:17 PM 34.5653 -103.6281 96° East 461 531 35,000 -293 Descending Albuquerque Center
Thu 11:33:18 PM 34.5522 -103.4728 96° East 461 531 35,000  Level Albuquerque Center
Thu 11:34:20 PM 34.5381 -103.3164 96° East 462 532 35,000  Level Albuquerque Center
Thu 11:35:21 PM 34.5247 -103.1608 96° East 462 532 35,000  Level Albuquerque Center
Thu 11:36:23 PM 34.5103 -103.0050 96° East 462 532 35,000  Level Albuquerque Center
Thu 11:37:24 PM 34.4933 -102.8219 96° East 462 532 35,000  Level Albuquerque Center
Thu 11:38:25 PM 34.4781 -102.6717 97° East 462 532 35,000  Level Albuquerque Center
Thu 11:39:27 PM 34.4614 -102.5183 97° East 462 532 35,000  Level Albuquerque Center
Thu 11:40:28 PM 34.4456 -102.3628 97° East 462 532 35,000  Level Albuquerque Center
Thu 11:41:30 PM 34.4294 -102.2100 97° East 462 532 35,000  Level Albuquerque Center
Thu 11:42:40 PM 34.4092 -102.0253 98° East 463 533 35,000  Level Fort Worth Center
Thu 11:44:42 PM 34.3758 -101.7161 97° East 467 537 35,000  Level Fort Worth Center
Thu 11:49:46 PM 34.2856 -100.9144 108° East 466 536 35,000  Level Fort Worth Center
Thu 11:50:47 PM 34.2542 -100.7631 104° East 467 537 35,000  Level Fort Worth Center
Thu 11:51:48 PM 34.2169 -100.6158 107° East 466 536 35,000  Level Fort Worth Center
Thu 11:52:48 PM 34.1822 -100.4647 105° East 467 537 35,000  Level Fort Worth Center
Thu 11:53:00 PM 34.2232 -100.4813 97° East  Level FlightAware Approximate
Thu 11:53:49 PM 34.1511 -100.3317 106° East 467 537 35,000  Level Fort Worth Center
Thu 11:54:00 PM 34.2085 -100.3345 97° East  Level FlightAware Approximate
Thu 11:54:50 PM 34.1150 -100.1769 106° East 469 540 35,000  Level Fort Worth Center
Thu 11:55:00 PM 34.1837 -100.1904 108° East  Level FlightAware Approximate
Thu 11:55:51 PM 34.0722 -99.9917 106° East 473 544 35,000  Level Fort Worth Center
Thu 11:56:52 PM 34.0353 -99.8383 106° East 474 545 35,000  Level Fort Worth Center
Thu 11:57:52 PM 33.9986 -99.6831 106° East 478 550 35,000  Level Fort Worth Center
Thu 11:58:53 PM 33.9617 -99.5275 106° East 478 550 35,000  Level Fort Worth Center
Thu 11:59:54 PM 33.9247 -99.3758 106° East 474 545 35,000  Level Fort Worth Center
Fri 12:00:55 AM 33.8872 -99.2214 106° East 474 545 35,000  Level Fort Worth Center
Fri 12:01:55 AM 33.8533 -99.0800 106° East 477 549 35,000 -545 Level Fort Worth Center
Fri 12:02:56 AM 33.7942 -98.9172 114° Southeast 484 557 33,900 -2,016 Descending Fort Worth Center
Fri 12:03:57 AM 33.7389 -98.7661 114° Southeast 488 562 30,900 -2,579 Descending Fort Worth Center
Fri 12:04:57 AM 33.6914 -98.6317 113° Southeast 488 562 28,700 -2,281 Descending Fort Worth Center
Fri 12:05:58 AM 33.6389 -98.4886 114° Southeast 474 545 26,300 -2,508 Descending Fort Worth Center
Fri 12:06:59 AM 33.5778 -98.3231 114° Southeast 456 525 23,600 -2,331 Descending Fort Worth Center
Fri 12:07:59 AM 33.5322 -98.1969 113° Southeast 439 505 21,600 -2,132 Descending Fort Worth Center
Fri 12:09:00 AM 33.4814 -98.0597 114° Southeast 423 487 19,300 -2,066 Descending Fort Worth Center
Fri 12:10:01 AM 33.4353 -97.9378 114° Southeast 402 463 17,400 -2,083 Descending Fort Worth Center
Fri 12:11:01 AM 33.3900 -97.8158 114° Southeast 400 460 15,100 -2,083 Descending Fort Worth Center
Fri 12:12:02 AM 33.3458 -97.6986 114° Southeast 386 444 13,200 -1,574 Descending Fort Worth Center
Fri 12:13:03 AM 33.3044 -97.5881 114° Southeast 364 419 11,900 -1,091 Descending Fort Worth Center
Fri 12:14:03 AM 33.2569 -97.4919 121° Southeast 332 382 11,000 -446 Descending Fort Worth Center
Fri 12:15:04 AM 33.1925 -97.4178 136° Southeast 318 366 11,000  Level Fort Worth Center
Fri 12:16:05 AM 33.1342 -97.3492 135° Southeast 297 342 11,000  Level Fort Worth Center
Fri 12:17:05 AM 33.0714 -97.2761 136° Southeast 295 339 11,000  Level Fort Worth Center
Fri 12:18:06 AM 33.0175 -97.2136 136° Southeast 271 312 11,000 -50 Level Fort Worth Center
Fri 12:19:06 AM 32.9611 -97.1708 148° Southeast 255 293 10,900 -793 Descending Fort Worth Center
Fri 12:20:07 AM 32.8953 -97.1694 179° South 235 270 9,400 -1,475 Descending Fort Worth Center
Fri 12:21:08 AM 32.8300 -97.1700 180° South 234 269 7,900 -1,438 Descending Fort Worth Center
Fri 12:22:08 AM 32.7689 -97.1575 170° South 232 267 6,500 -1,289 Descending Fort Worth Center
Fri 12:23:09 AM 32.7200 -97.1256 151° Southeast 200 230 5,300 -1,328 Descending Fort Worth Center
Fri 12:24:10 AM 32.7161 -97.0708 95° East 186 214 3,800 -1,190 Descending Fort Worth Center
Fri 12:25:10 AM 32.7519 -97.0447 31° Northeast 185 213 2,900 -793 Descending Fort Worth Center
Fri 12:26:11 AM 32.8014 -97.0528 352° North 162 186 2,200 -793 Descending Fort Worth Center
Fri 12:27:11 AM 32.8422 -97.0519 North 150 173 1,300 -793 Descending Fort Worth Center
Fri 12:28:12 AM 32.8772 -97.0517 360° North 145 167 600 -689 Descending Fort Worth Center

Login

Don't have an account? Register now (free) for customized features, flight alerts, and more!